sensor_id;sensor_type;location;lat;lon;timestamp;temperature;humidity
10891;DHT22;5498;50.928;11.598;2023-04-01T00:00:32;10.90;90.90
10891;DHT22;5498;50.928;11.598;2023-04-01T00:03:34;10.80;90.90
10891;DHT22;5498;50.928;11.598;2023-04-01T00:06:36;10.90;91.00
10891;DHT22;5498;50.928;11.598;2023-04-01T00:09:38;10.80;91.00
10891;DHT22;5498;50.928;11.598;2023-04-01T00:12:41;10.80;90.80
10891;DHT22;5498;50.928;11.598;2023-04-01T00:15:44;10.80;90.90
10891;DHT22;5498;50.928;11.598;2023-04-01T00:18:46;10.80;90.80
10891;DHT22;5498;50.928;11.598;2023-04-01T00:21:48;10.90;90.60
10891;DHT22;5498;50.928;11.598;2023-04-01T00:24:50;10.90;90.50
10891;DHT22;5498;50.928;11.598;2023-04-01T00:27:53;10.90;90.50
10891;DHT22;5498;50.928;11.598;2023-04-01T00:30:55;11.20;90.70
10891;DHT22;5498;50.928;11.598;2023-04-01T00:33:57;10.80;90.50
10891;DHT22;5498;50.928;11.598;2023-04-01T00:36:59;10.90;90.30
10891;DHT22;5498;50.928;11.598;2023-04-01T00:40:01;10.90;90.30
10891;DHT22;5498;50.928;11.598;2023-04-01T00:43:10;10.90;90.50
10891;DHT22;5498;50.928;11.598;2023-04-01T00:46:14;10.90;90.50
10891;DHT22;5498;50.928;11.598;2023-04-01T00:49:18;10.80;90.40
10891;DHT22;5498;50.928;11.598;2023-04-01T00:52:23;10.80;90.50
10891;DHT22;5498;50.928;11.598;2023-04-01T00:55:27;10.80;90.40
10891;DHT22;5498;50.928;11.598;2023-04-01T00:58:35;10.80;90.40
10891;DHT22;5498;50.928;11.598;2023-04-01T01:01:39;10.80;90.30
10891;DHT22;5498;50.928;11.598;2023-04-01T01:04:40;10.90;89.80
10891;DHT22;5498;50.928;11.598;2023-04-01T01:07:46;10.90;89.60
10891;DHT22;5498;50.928;11.598;2023-04-01T01:10:55;10.90;89.60
10891;DHT22;5498;50.928;11.598;2023-04-01T01:14:02;10.90;89.10
10891;DHT22;5498;50.928;11.598;2023-04-01T01:17:13;10.90;89.40
10891;DHT22;5498;50.928;11.598;2023-04-01T01:20:41;10.90;89.60
10891;DHT22;5498;50.928;11.598;2023-04-01T01:24:17;10.90;89.80
10891;DHT22;5498;50.928;11.598;2023-04-01T01:27:33;10.80;89.80
10891;DHT22;5498;50.928;11.598;2023-04-01T01:30:42;10.80;89.50
10891;DHT22;5498;50.928;11.598;2023-04-01T01:33:54;10.80;89.50
10891;DHT22;5498;50.928;11.598;2023-04-01T01:37:10;10.90;89.40
10891;DHT22;5498;50.928;11.598;2023-04-01T01:40:13;10.80;89.10
10891;DHT22;5498;50.928;11.598;2023-04-01T01:43:20;10.80;89.20
10891;DHT22;5498;50.928;11.598;2023-04-01T01:46:25;10.80;89.50
10891;DHT22;5498;50.928;11.598;2023-04-01T01:49:28;10.80;89.20
10891;DHT22;5498;50.928;11.598;2023-04-01T01:52:33;10.80;89.30
10891;DHT22;5498;50.928;11.598;2023-04-01T01:55:38;10.90;88.80
10891;DHT22;5498;50.928;11.598;2023-04-01T01:58:43;10.80;89.50
10891;DHT22;5498;50.928;11.598;2023-04-01T02:01:50;10.80;89.30
10891;DHT22;5498;50.928;11.598;2023-04-01T02:04:53;10.80;89.30
10891;DHT22;5498;50.928;11.598;2023-04-01T02:08:01;10.80;89.20
10891;DHT22;5498;50.928;11.598;2023-04-01T02:11:08;10.80;89.20
10891;DHT22;5498;50.928;11.598;2023-04-01T02:14:14;10.80;88.90
10891;DHT22;5498;50.928;11.598;2023-04-01T02:17:20;10.90;89.00
10891;DHT22;5498;50.928;11.598;2023-04-01T02:20:24;10.80;89.20
10891;DHT22;5498;50.928;11.598;2023-04-01T02:23:28;10.90;89.20
10891;DHT22;5498;50.928;11.598;2023-04-01T02:26:30;10.80;89.00
10891;DHT22;5498;50.928;11.598;2023-04-01T02:29:32;10.90;88.30
10891;DHT22;5498;50.928;11.598;2023-04-01T02:32:35;10.80;88.30
10891;DHT22;5498;50.928;11.598;2023-04-01T02:35:39;10.80;88.80
10891;DHT22;5498;50.928;11.598;2023-04-01T02:38:44;10.80;88.80
10891;DHT22;5498;50.928;11.598;2023-04-01T02:41:46;10.80;88.60
10891;DHT22;5498;50.928;11.598;2023-04-01T02:44:48;10.90;88.10
10891;DHT22;5498;50.928;11.598;2023-04-01T02:47:50;10.80;88.10
10891;DHT22;5498;50.928;11.598;2023-04-01T02:50:52;10.80;87.90
10891;DHT22;5498;50.928;11.598;2023-04-01T02:53:55;10.90;87.70
10891;DHT22;5498;50.928;11.598;2023-04-01T02:56:57;10.80;87.70
10891;DHT22;5498;50.928;11.598;2023-04-01T02:59:59;10.80;87.70
10891;DHT22;5498;50.928;11.598;2023-04-01T03:03:01;10.80;87.70
10891;DHT22;5498;50.928;11.598;2023-04-01T03:06:05;10.80;87.70
10891;DHT22;5498;50.928;11.598;2023-04-01T03:09:08;10.80;88.30
10891;DHT22;5498;50.928;11.598;2023-04-01T03:12:11;10.80;88.00
10891;DHT22;5498;50.928;11.598;2023-04-01T03:15:13;10.80;87.70
10891;DHT22;5498;50.928;11.598;2023-04-01T03:18:15;10.80;87.90
10891;DHT22;5498;50.928;11.598;2023-04-01T03:21:19;10.80;87.50
10891;DHT22;5498;50.928;11.598;2023-04-01T03:24:24;10.80;87.90
10891;DHT22;5498;50.928;11.598;2023-04-01T03:27:25;10.80;87.50
10891;DHT22;5498;50.928;11.598;2023-04-01T03:30:28;10.80;87.60
10891;DHT22;5498;50.928;11.598;2023-04-01T03:33:30;10.70;87.60
10891;DHT22;5498;50.928;11.598;2023-04-01T03:36:32;10.70;88.00
10891;DHT22;5498;50.928;11.598;2023-04-01T03:39:36;10.70;87.40
10891;DHT22;5498;50.928;11.598;2023-04-01T03:42:38;10.80;87.60
10891;DHT22;5498;50.928;11.598;2023-04-01T03:45:43;10.80;87.10
10891;DHT22;5498;50.928;11.598;2023-04-01T03:48:45;10.70;87.40
10891;DHT22;5498;50.928;11.598;2023-04-01T03:51:47;10.80;87.40
10891;DHT22;5498;50.928;11.598;2023-04-01T03:54:51;10.70;87.00
10891;DHT22;5498;50.928;11.598;2023-04-01T03:57:52;10.70;87.40
10891;DHT22;5498;50.928;11.598;2023-04-01T04:00:54;10.70;87.20
10891;DHT22;5498;50.928;11.598;2023-04-01T04:03:56;10.70;87.20
10891;DHT22;5498;50.928;11.598;2023-04-01T04:06:58;10.70;87.80
10891;DHT22;5498;50.928;11.598;2023-04-01T04:10:01;10.70;87.20
10891;DHT22;5498;50.928;11.598;2023-04-01T04:13:04;10.70;86.90
10891;DHT22;5498;50.928;11.598;2023-04-01T04:16:06;10.70;86.40
10891;DHT22;5498;50.928;11.598;2023-04-01T04:19:08;10.70;87.10
10891;DHT22;5498;50.928;11.598;2023-04-01T04:22:10;10.70;86.90
10891;DHT22;5498;50.928;11.598;2023-04-01T04:25:14;10.70;86.80
10891;DHT22;5498;50.928;11.598;2023-04-01T04:28:16;10.70;86.50
10891;DHT22;5498;50.928;11.598;2023-04-01T04:31:18;10.60;86.70
10891;DHT22;5498;50.928;11.598;2023-04-01T04:34:21;10.60;87.00
10891;DHT22;5498;50.928;11.598;2023-04-01T04:37:23;10.60;86.50
10891;DHT22;5498;50.928;11.598;2023-04-01T04:40:27;10.60;86.80
10891;DHT22;5498;50.928;11.598;2023-04-01T04:43:29;10.60;86.10
10891;DHT22;5498;50.928;11.598;2023-04-01T04:46:31;10.60;86.60
10891;DHT22;5498;50.928;11.598;2023-04-01T04:49:33;10.60;86.90
10891;DHT22;5498;50.928;11.598;2023-04-01T04:52:35;10.60;86.60
10891;DHT22;5498;50.928;11.598;2023-04-01T04:55:43;10.60;86.60
10891;DHT22;5498;50.928;11.598;2023-04-01T04:58:45;10.60;87.00
10891;DHT22;5498;50.928;11.598;2023-04-01T05:01:47;10.70;86.70
10891;DHT22;5498;50.928;11.598;2023-04-01T05:04:49;10.60;86.10
10891;DHT22;5498;50.928;11.598;2023-04-01T05:07:51;10.60;86.10
10891;DHT22;5498;50.928;11.598;2023-04-01T05:10:54;10.70;86.00
10891;DHT22;5498;50.928;11.598;2023-04-01T05:13:56;10.60;85.90
10891;DHT22;5498;50.928;11.598;2023-04-01T05:16:58;10.60;86.60
10891;DHT22;5498;50.928;11.598;2023-04-01T05:20:00;10.70;87.80
10891;DHT22;5498;50.928;11.598;2023-04-01T05:23:03;10.80;87.90
10891;DHT22;5498;50.928;11.598;2023-04-01T05:26:08;10.80;88.00
10891;DHT22;5498;50.928;11.598;2023-04-01T05:29:11;10.80;87.90
10891;DHT22;5498;50.928;11.598;2023-04-01T05:32:13;11.20;87.00
10891;DHT22;5498;50.928;11.598;2023-04-01T05:35:15;10.90;86.60
10891;DHT22;5498;50.928;11.598;2023-04-01T05:38:17;10.90;86.10
10891;DHT22;5498;50.928;11.598;2023-04-01T05:41:20;10.90;86.00
10891;DHT22;5498;50.928;11.598;2023-04-01T05:44:22;10.80;87.00
10891;DHT22;5498;50.928;11.598;2023-04-01T05:47:24;10.80;85.90
10891;DHT22;5498;50.928;11.598;2023-04-01T05:50:26;10.80;86.20
10891;DHT22;5498;50.928;11.598;2023-04-01T05:53:28;10.80;86.10
10891;DHT22;5498;50.928;11.598;2023-04-01T05:56:31;10.80;86.00
10891;DHT22;5498;50.928;11.598;2023-04-01T05:59:33;10.80;85.60
10891;DHT22;5498;50.928;11.598;2023-04-01T06:02:35;11.10;86.10
10891;DHT22;5498;50.928;11.598;2023-04-01T06:05:40;10.80;85.60
10891;DHT22;5498;50.928;11.598;2023-04-01T06:08:42;10.80;86.00
10891;DHT22;5498;50.928;11.598;2023-04-01T06:11:57;10.80;85.80
10891;DHT22;5498;50.928;11.598;2023-04-01T06:15:20;10.80;86.20
10891;DHT22;5498;50.928;11.598;2023-04-01T06:18:45;10.80;86.50
10891;DHT22;5498;50.928;11.598;2023-04-01T06:22:18;10.80;86.60
10891;DHT22;5498;50.928;11.598;2023-04-01T06:25:40;10.80;86.60
10891;DHT22;5498;50.928;11.598;2023-04-01T06:29:18;10.90;86.90
10891;DHT22;5498;50.928;11.598;2023-04-01T06:32:44;10.30;86.80
10891;DHT22;5498;50.928;11.598;2023-04-01T06:36:23;10.90;87.40
10891;DHT22;5498;50.928;11.598;2023-04-01T06:40:03;10.90;87.20
10891;DHT22;5498;50.928;11.598;2023-04-01T06:43:17;11.00;87.40
10891;DHT22;5498;50.928;11.598;2023-04-01T06:46:29;11.00;86.80
10891;DHT22;5498;50.928;11.598;2023-04-01T06:49:44;11.10;86.50
10891;DHT22;5498;50.928;11.598;2023-04-01T06:52:58;11.10;86.40
10891;DHT22;5498;50.928;11.598;2023-04-01T06:56:06;11.10;86.20
10891;DHT22;5498;50.928;11.598;2023-04-01T06:59:12;11.20;86.10
10891;DHT22;5498;50.928;11.598;2023-04-01T07:02:25;11.20;86.20
10891;DHT22;5498;50.928;11.598;2023-04-01T07:05:32;11.20;86.10
10891;DHT22;5498;50.928;11.598;2023-04-01T07:08:38;11.20;86.20
10891;DHT22;5498;50.928;11.598;2023-04-01T07:11:42;11.20;86.10
10891;DHT22;5498;50.928;11.598;2023-04-01T07:14:44;11.30;86.00
10891;DHT22;5498;50.928;11.598;2023-04-01T07:17:53;11.30;86.30
10891;DHT22;5498;50.928;11.598;2023-04-01T07:20:57;11.30;86.40
10891;DHT22;5498;50.928;11.598;2023-04-01T07:24:04;11.40;86.50
10891;DHT22;5498;50.928;11.598;2023-04-01T07:27:10;11.40;86.30
10891;DHT22;5498;50.928;11.598;2023-04-01T07:30:17;11.50;86.00
10891;DHT22;5498;50.928;11.598;2023-04-01T07:33:26;11.50;85.60
10891;DHT22;5498;50.928;11.598;2023-04-01T07:36:35;11.60;85.40
10891;DHT22;5498;50.928;11.598;2023-04-01T07:39:46;11.60;85.10
10891;DHT22;5498;50.928;11.598;2023-04-01T07:43:05;11.70;84.70
10891;DHT22;5498;50.928;11.598;2023-04-01T07:46:24;11.70;84.40
10891;DHT22;5498;50.928;11.598;2023-04-01T07:49:45;11.80;84.10
10891;DHT22;5498;50.928;11.598;2023-04-01T07:52:59;11.80;83.20
10891;DHT22;5498;50.928;11.598;2023-04-01T07:56:10;11.90;83.20
10891;DHT22;5498;50.928;11.598;2023-04-01T07:59:19;11.90;83.90
10891;DHT22;5498;50.928;11.598;2023-04-01T08:02:31;11.90;82.90
10891;DHT22;5498;50.928;11.598;2023-04-01T08:05:47;12.00;83.20
10891;DHT22;5498;50.928;11.598;2023-04-01T08:09:02;12.10;83.00
10891;DHT22;5498;50.928;11.598;2023-04-01T08:12:17;12.10;83.10
10891;DHT22;5498;50.928;11.598;2023-04-01T08:15:26;12.20;84.50
10891;DHT22;5498;50.928;11.598;2023-04-01T08:18:37;12.30;85.20
10891;DHT22;5498;50.928;11.598;2023-04-01T08:21:49;12.50;86.80
10891;DHT22;5498;50.928;11.598;2023-04-01T08:24:55;12.60;85.60
10891;DHT22;5498;50.928;11.598;2023-04-01T08:28:04;12.70;85.20
10891;DHT22;5498;50.928;11.598;2023-04-01T08:31:14;12.70;83.70
10891;DHT22;5498;50.928;11.598;2023-04-01T08:34:21;12.80;84.20
10891;DHT22;5498;50.928;11.598;2023-04-01T08:37:37;12.80;83.80
10891;DHT22;5498;50.928;11.598;2023-04-01T08:40:58;12.90;83.80
10891;DHT22;5498;50.928;11.598;2023-04-01T08:44:13;12.90;83.70
10891;DHT22;5498;50.928;11.598;2023-04-01T08:51:36;13.00;83.60
10891;DHT22;5498;50.928;11.598;2023-04-01T08:55:10;13.00;84.00
10891;DHT22;5498;50.928;11.598;2023-04-01T08:58:51;13.10;83.30
10891;DHT22;5498;50.928;11.598;2023-04-01T09:02:35;13.10;83.20
10891;DHT22;5498;50.928;11.598;2023-04-01T09:06:17;13.10;83.10
10891;DHT22;5498;50.928;11.598;2023-04-01T09:10:25;13.10;82.90
10891;DHT22;5498;50.928;11.598;2023-04-01T09:13:46;13.10;82.60
10891;DHT22;5498;50.928;11.598;2023-04-01T09:17:21;13.10;81.90
10891;DHT22;5498;50.928;11.598;2023-04-01T09:20:47;13.10;81.50
10891;DHT22;5498;50.928;11.598;2023-04-01T09:24:33;13.00;81.50
10891;DHT22;5498;50.928;11.598;2023-04-01T09:27:47;12.90;81.90
10891;DHT22;5498;50.928;11.598;2023-04-01T09:31:13;12.90;81.80
10891;DHT22;5498;50.928;11.598;2023-04-01T09:34:32;13.00;82.20
10891;DHT22;5498;50.928;11.598;2023-04-01T09:37:52;13.00;81.90
10891;DHT22;5498;50.928;11.598;2023-04-01T09:40:57;13.00;81.50
10891;DHT22;5498;50.928;11.598;2023-04-01T09:44:07;13.00;81.40
10891;DHT22;5498;50.928;11.598;2023-04-01T09:47:26;13.00;81.30
10891;DHT22;5498;50.928;11.598;2023-04-01T09:50:46;13.00;81.30
10891;DHT22;5498;50.928;11.598;2023-04-01T09:54:04;13.00;80.60
10891;DHT22;5498;50.928;11.598;2023-04-01T09:57:55;13.00;80.00
10891;DHT22;5498;50.928;11.598;2023-04-01T10:01:39;13.00;80.30
10891;DHT22;5498;50.928;11.598;2023-04-01T10:05:10;12.90;80.20
10891;DHT22;5498;50.928;11.598;2023-04-01T10:13:16;12.90;79.90
10891;DHT22;5498;50.928;11.598;2023-04-01T10:17:15;12.90;80.30
10891;DHT22;5498;50.928;11.598;2023-04-01T10:20:59;12.90;80.70
10891;DHT22;5498;50.928;11.598;2023-04-01T10:24:43;12.80;80.80
10891;DHT22;5498;50.928;11.598;2023-04-01T10:28:37;12.80;81.10
10891;DHT22;5498;50.928;11.598;2023-04-01T10:32:17;12.90;80.30
10891;DHT22;5498;50.928;11.598;2023-04-01T10:40:05;12.70;81.30
10891;DHT22;5498;50.928;11.598;2023-04-01T10:44:01;12.70;81.60
10891;DHT22;5498;50.928;11.598;2023-04-01T10:47:48;12.70;81.80
10891;DHT22;5498;50.928;11.598;2023-04-01T10:51:30;12.60;82.30
10891;DHT22;5498;50.928;11.598;2023-04-01T10:54:46;12.60;82.60
10891;DHT22;5498;50.928;11.598;2023-04-01T10:58:10;12.50;83.10
10891;DHT22;5498;50.928;11.598;2023-04-01T11:01:58;12.50;83.50
10891;DHT22;5498;50.928;11.598;2023-04-01T11:13:48;12.50;83.20
10891;DHT22;5498;50.928;11.598;2023-04-01T11:25:03;12.70;83.90
10891;DHT22;5498;50.928;11.598;2023-04-01T11:28:27;12.80;84.10
10891;DHT22;5498;50.928;11.598;2023-04-01T11:31:54;12.90;84.10
10891;DHT22;5498;50.928;11.598;2023-04-01T11:35:19;12.90;83.70
10891;DHT22;5498;50.928;11.598;2023-04-01T11:38:49;12.90;83.60
10891;DHT22;5498;50.928;11.598;2023-04-01T11:42:10;12.90;84.50
10891;DHT22;5498;50.928;11.598;2023-04-01T11:45:28;12.70;85.30
10891;DHT22;5498;50.928;11.598;2023-04-01T11:48:48;12.60;86.00
10891;DHT22;5498;50.928;11.598;2023-04-01T11:52:12;12.70;86.30
10891;DHT22;5498;50.928;11.598;2023-04-01T11:55:27;12.70;86.70
10891;DHT22;5498;50.928;11.598;2023-04-01T11:58:47;12.70;86.80
10891;DHT22;5498;50.928;11.598;2023-04-01T12:02:05;12.80;87.10
10891;DHT22;5498;50.928;11.598;2023-04-01T12:05:29;12.80;87.30
10891;DHT22;5498;50.928;11.598;2023-04-01T12:08:44;12.90;87.00
10891;DHT22;5498;50.928;11.598;2023-04-01T12:11:56;13.00;86.60
10891;DHT22;5498;50.928;11.598;2023-04-01T12:15:16;13.20;86.00
10891;DHT22;5498;50.928;11.598;2023-04-01T12:18:26;13.30;85.90
10891;DHT22;5498;50.928;11.598;2023-04-01T12:21:36;13.30;85.20
10891;DHT22;5498;50.928;11.598;2023-04-01T12:24:46;13.40;85.10
10891;DHT22;5498;50.928;11.598;2023-04-01T12:28:01;13.40;85.00
10891;DHT22;5498;50.928;11.598;2023-04-01T12:31:19;13.50;84.70
10891;DHT22;5498;50.928;11.598;2023-04-01T12:34:51;13.50;83.80
10891;DHT22;5498;50.928;11.598;2023-04-01T12:38:09;13.60;83.50
10891;DHT22;5498;50.928;11.598;2023-04-01T12:41:23;13.60;83.80
10891;DHT22;5498;50.928;11.598;2023-04-01T12:44:41;13.60;83.60
10891;DHT22;5498;50.928;11.598;2023-04-01T12:48:06;13.60;83.60
10891;DHT22;5498;50.928;11.598;2023-04-01T12:51:41;13.60;83.90
10891;DHT22;5498;50.928;11.598;2023-04-01T12:55:21;13.60;84.20
10891;DHT22;5498;50.928;11.598;2023-04-01T12:59:08;13.50;84.00
10891;DHT22;5498;50.928;11.598;2023-04-01T13:02:30;13.50;82.80
10891;DHT22;5498;50.928;11.598;2023-04-01T13:05:58;13.50;82.80
10891;DHT22;5498;50.928;11.598;2023-04-01T13:09:24;13.50;82.80
10891;DHT22;5498;50.928;11.598;2023-04-01T13:12:48;13.50;83.60
10891;DHT22;5498;50.928;11.598;2023-04-01T13:16:06;13.50;83.60
10891;DHT22;5498;50.928;11.598;2023-04-01T13:19:19;13.50;83.40
10891;DHT22;5498;50.928;11.598;2023-04-01T13:22:27;13.50;83.30
10891;DHT22;5498;50.928;11.598;2023-04-01T13:25:37;13.60;83.50
10891;DHT22;5498;50.928;11.598;2023-04-01T13:28:49;13.50;84.30
10891;DHT22;5498;50.928;11.598;2023-04-01T13:32:18;13.30;84.10
10891;DHT22;5498;50.928;11.598;2023-04-01T13:35:34;13.40;84.00
10891;DHT22;5498;50.928;11.598;2023-04-01T13:38:52;13.50;82.40
10891;DHT22;5498;50.928;11.598;2023-04-01T13:42:14;13.50;82.50
10891;DHT22;5498;50.928;11.598;2023-04-01T13:45:22;13.50;81.60
10891;DHT22;5498;50.928;11.598;2023-04-01T13:48:46;13.50;81.60
10891;DHT22;5498;50.928;11.598;2023-04-01T13:52:08;13.50;82.00
10891;DHT22;5498;50.928;11.598;2023-04-01T13:55:54;13.40;82.50
10891;DHT22;5498;50.928;11.598;2023-04-01T14:02:47;13.30;84.60
10891;DHT22;5498;50.928;11.598;2023-04-01T14:06:00;13.30;84.40
10891;DHT22;5498;50.928;11.598;2023-04-01T14:09:20;13.30;83.90
10891;DHT22;5498;50.928;11.598;2023-04-01T14:12:33;13.30;84.00
10891;DHT22;5498;50.928;11.598;2023-04-01T14:15:50;13.30;84.00
10891;DHT22;5498;50.928;11.598;2023-04-01T14:19:11;13.30;83.60
10891;DHT22;5498;50.928;11.598;2023-04-01T14:22:38;13.30;83.90
10891;DHT22;5498;50.928;11.598;2023-04-01T14:29:27;13.30;83.20
10891;DHT22;5498;50.928;11.598;2023-04-01T14:32:43;13.20;83.30
10891;DHT22;5498;50.928;11.598;2023-04-01T14:36:16;13.20;84.90
10891;DHT22;5498;50.928;11.598;2023-04-01T14:39:43;13.10;86.30
10891;DHT22;5498;50.928;11.598;2023-04-01T14:43:10;13.00;87.30
10891;DHT22;5498;50.928;11.598;2023-04-01T14:46:34;13.00;87.80
10891;DHT22;5498;50.928;11.598;2023-04-01T14:50:05;13.00;88.80
10891;DHT22;5498;50.928;11.598;2023-04-01T14:53:16;13.00;89.60
10891;DHT22;5498;50.928;11.598;2023-04-01T14:56:40;13.00;89.30
10891;DHT22;5498;50.928;11.598;2023-04-01T14:59:49;13.00;89.00
10891;DHT22;5498;50.928;11.598;2023-04-01T15:02:57;13.00;88.60
10891;DHT22;5498;50.928;11.598;2023-04-01T15:06:50;13.10;88.70
10891;DHT22;5498;50.928;11.598;2023-04-01T15:10:06;13.10;88.70
10891;DHT22;5498;50.928;11.598;2023-04-01T15:13:16;13.10;88.40
10891;DHT22;5498;50.928;11.598;2023-04-01T15:16:27;13.10;88.10
10891;DHT22;5498;50.928;11.598;2023-04-01T15:19:41;13.10;88.30
10891;DHT22;5498;50.928;11.598;2023-04-01T15:26:55;13.10;88.80
10891;DHT22;5498;50.928;11.598;2023-04-01T15:30:27;13.10;88.70
10891;DHT22;5498;50.928;11.598;2023-04-01T15:33:42;13.10;88.50
10891;DHT22;5498;50.928;11.598;2023-04-01T15:36:56;13.10;88.90
10891;DHT22;5498;50.928;11.598;2023-04-01T15:40:05;13.20;88.60
10891;DHT22;5498;50.928;11.598;2023-04-01T15:43:25;13.20;88.30
10891;DHT22;5498;50.928;11.598;2023-04-01T15:46:44;13.20;88.70
10891;DHT22;5498;50.928;11.598;2023-04-01T15:49:53;13.10;88.50
10891;DHT22;5498;50.928;11.598;2023-04-01T15:53:07;13.10;87.70
10891;DHT22;5498;50.928;11.598;2023-04-01T15:56:25;13.10;87.50
10891;DHT22;5498;50.928;11.598;2023-04-01T15:59:53;13.10;87.70
10891;DHT22;5498;50.928;11.598;2023-04-01T16:03:20;13.10;87.00
10891;DHT22;5498;50.928;11.598;2023-04-01T16:06:51;13.10;87.60
10891;DHT22;5498;50.928;11.598;2023-04-01T16:10:23;13.00;88.20
10891;DHT22;5498;50.928;11.598;2023-04-01T16:13:42;13.00;88.10
10891;DHT22;5498;50.928;11.598;2023-04-01T16:17:01;13.00;87.80
10891;DHT22;5498;50.928;11.598;2023-04-01T16:20:18;13.00;87.70
10891;DHT22;5498;50.928;11.598;2023-04-01T16:23:26;13.00;87.70
10891;DHT22;5498;50.928;11.598;2023-04-01T16:26:37;13.00;88.20
10891;DHT22;5498;50.928;11.598;2023-04-01T16:29:45;13.00;88.10
10891;DHT22;5498;50.928;11.598;2023-04-01T16:32:51;12.50;90.10
10891;DHT22;5498;50.928;11.598;2023-04-01T16:35:58;12.50;90.20
10891;DHT22;5498;50.928;11.598;2023-04-01T16:39:22;12.60;89.90
10891;DHT22;5498;50.928;11.598;2023-04-01T16:42:35;12.70;89.80
10891;DHT22;5498;50.928;11.598;2023-04-01T16:45:45;12.60;89.70
10891;DHT22;5498;50.928;11.598;2023-04-01T16:49:23;12.70;89.70
10891;DHT22;5498;50.928;11.598;2023-04-01T16:52:35;12.60;89.80
10891;DHT22;5498;50.928;11.598;2023-04-01T16:55:48;12.60;90.20
10891;DHT22;5498;50.928;11.598;2023-04-01T16:58:59;12.50;90.30
10891;DHT22;5498;50.928;11.598;2023-04-01T17:02:10;12.40;90.80
10891;DHT22;5498;50.928;11.598;2023-04-01T17:05:14;12.30;91.10
10891;DHT22;5498;50.928;11.598;2023-04-01T17:08:22;12.30;90.90
10891;DHT22;5498;50.928;11.598;2023-04-01T17:11:37;12.30;91.20
10891;DHT22;5498;50.928;11.598;2023-04-01T17:14:46;12.20;91.30
10891;DHT22;5498;50.928;11.598;2023-04-01T17:17:59;12.20;91.30
10891;DHT22;5498;50.928;11.598;2023-04-01T17:21:08;12.20;91.30
10891;DHT22;5498;50.928;11.598;2023-04-01T17:24:27;12.20;91.00
10891;DHT22;5498;50.928;11.598;2023-04-01T17:27:41;11.90;91.40
10891;DHT22;5498;50.928;11.598;2023-04-01T17:30:57;11.70;91.90
10891;DHT22;5498;50.928;11.598;2023-04-01T17:34:18;11.40;92.10
10891;DHT22;5498;50.928;11.598;2023-04-01T17:37:34;11.50;92.20
10891;DHT22;5498;50.928;11.598;2023-04-01T17:40:54;11.40;93.00
10891;DHT22;5498;50.928;11.598;2023-04-01T17:44:13;11.30;93.30
10891;DHT22;5498;50.928;11.598;2023-04-01T17:47:31;11.40;93.30
10891;DHT22;5498;50.928;11.598;2023-04-01T17:50:52;11.50;93.30
10891;DHT22;5498;50.928;11.598;2023-04-01T17:54:10;11.60;93.30
10891;DHT22;5498;50.928;11.598;2023-04-01T17:57:30;11.60;93.40
10891;DHT22;5498;50.928;11.598;2023-04-01T18:00:54;11.60;93.60
10891;DHT22;5498;50.928;11.598;2023-04-01T18:08:17;11.70;93.60
10891;DHT22;5498;50.928;11.598;2023-04-01T18:11:35;11.70;93.50
10891;DHT22;5498;50.928;11.598;2023-04-01T18:15:00;12.10;93.50
10891;DHT22;5498;50.928;11.598;2023-04-01T18:18:29;11.50;93.30
10891;DHT22;5498;50.928;11.598;2023-04-01T18:21:43;11.40;93.40
10891;DHT22;5498;50.928;11.598;2023-04-01T18:24:56;11.20;93.80
10891;DHT22;5498;50.928;11.598;2023-04-01T18:28:19;11.00;94.40
10891;DHT22;5498;50.928;11.598;2023-04-01T18:31:26;11.00;94.70
10891;DHT22;5498;50.928;11.598;2023-04-01T18:34:43;11.00;94.50
10891;DHT22;5498;50.928;11.598;2023-04-01T18:37:58;11.10;94.70
10891;DHT22;5498;50.928;11.598;2023-04-01T18:41:13;11.00;94.50
10891;DHT22;5498;50.928;11.598;2023-04-01T18:44:38;10.70;94.50
10891;DHT22;5498;50.928;11.598;2023-04-01T18:47:48;10.50;95.00
10891;DHT22;5498;50.928;11.598;2023-04-01T18:51:01;10.60;95.30
10891;DHT22;5498;50.928;11.598;2023-04-01T18:54:10;10.40;95.10
10891;DHT22;5498;50.928;11.598;2023-04-01T18:57:15;10.30;95.50
10891;DHT22;5498;50.928;11.598;2023-04-01T19:00:21;10.10;95.90
10891;DHT22;5498;50.928;11.598;2023-04-01T19:03:31;9.90;96.20
10891;DHT22;5498;50.928;11.598;2023-04-01T19:06:44;10.00;96.50
10891;DHT22;5498;50.928;11.598;2023-04-01T19:09:49;9.90;96.60
10891;DHT22;5498;50.928;11.598;2023-04-01T19:13:09;9.90;96.80
10891;DHT22;5498;50.928;11.598;2023-04-01T19:16:25;9.90;97.00
10891;DHT22;5498;50.928;11.598;2023-04-01T19:19:45;9.80;97.10
10891;DHT22;5498;50.928;11.598;2023-04-01T19:26:49;9.70;97.20
10891;DHT22;5498;50.928;11.598;2023-04-01T19:30:23;9.80;97.20
10891;DHT22;5498;50.928;11.598;2023-04-01T19:33:43;9.90;97.30
10891;DHT22;5498;50.928;11.598;2023-04-01T19:36:52;10.00;97.00
10891;DHT22;5498;50.928;11.598;2023-04-01T19:40:09;10.00;96.90
10891;DHT22;5498;50.928;11.598;2023-04-01T19:43:39;10.20;96.90
10891;DHT22;5498;50.928;11.598;2023-04-01T19:46:53;10.30;96.70
10891;DHT22;5498;50.928;11.598;2023-04-01T19:50:04;10.30;96.50
10891;DHT22;5498;50.928;11.598;2023-04-01T19:53:19;10.40;96.40
10891;DHT22;5498;50.928;11.598;2023-04-01T19:56:33;10.50;96.20
10891;DHT22;5498;50.928;11.598;2023-04-01T19:59:42;10.50;96.10
10891;DHT22;5498;50.928;11.598;2023-04-01T20:03:05;10.60;96.10
10891;DHT22;5498;50.928;11.598;2023-04-01T20:06:16;10.60;96.00
10891;DHT22;5498;50.928;11.598;2023-04-01T20:09:34;10.60;96.00
10891;DHT22;5498;50.928;11.598;2023-04-01T20:12:49;10.60;96.10
10891;DHT22;5498;50.928;11.598;2023-04-01T20:16:00;10.70;96.00
10891;DHT22;5498;50.928;11.598;2023-04-01T20:19:03;10.50;95.80
10891;DHT22;5498;50.928;11.598;2023-04-01T20:22:20;10.40;96.00
10891;DHT22;5498;50.928;11.598;2023-04-01T20:25:30;10.30;96.60
10891;DHT22;5498;50.928;11.598;2023-04-01T20:28:43;10.40;96.60
10891;DHT22;5498;50.928;11.598;2023-04-01T20:31:57;10.50;96.40
10891;DHT22;5498;50.928;11.598;2023-04-01T20:35:33;10.50;96.40
10891;DHT22;5498;50.928;11.598;2023-04-01T20:39:02;10.50;96.30
10891;DHT22;5498;50.928;11.598;2023-04-01T20:42:29;10.60;96.20
10891;DHT22;5498;50.928;11.598;2023-04-01T20:45:43;10.70;96.10
10891;DHT22;5498;50.928;11.598;2023-04-01T20:52:32;10.60;95.90
10891;DHT22;5498;50.928;11.598;2023-04-01T20:56:06;10.60;96.10
10891;DHT22;5498;50.928;11.598;2023-04-01T20:59:25;10.50;96.50
10891;DHT22;5498;50.928;11.598;2023-04-01T21:02:52;10.40;96.40
10891;DHT22;5498;50.928;11.598;2023-04-01T21:06:13;10.30;96.70
10891;DHT22;5498;50.928;11.598;2023-04-01T21:09:41;10.30;96.60
10891;DHT22;5498;50.928;11.598;2023-04-01T21:12:54;10.40;96.80
10891;DHT22;5498;50.928;11.598;2023-04-01T21:16:10;10.40;96.60
10891;DHT22;5498;50.928;11.598;2023-04-01T21:19:30;10.80;96.60